Time;durP1;ratioP1;P1;durP2;ratioP2;P2;SDS_P1;SDS_P2;PMS_P1;PMS_P2;Temp;Humidity;BMP_temperature;BMP_pressure;BME280_temperature;BME280_humidity;BME280_pressure;Samples;Min_cycle;Max_cycle;Signal;HPM_P1;HPM_P2
2020/12/12 00:01:21;;;;;;;66.02;38.60;;;;;;;1.53;80.34;99176.02;126774;1098;23366;-77
2020/12/12 00:03:49;;;;;;;83.20;42.00;;;;;;;1.54;80.24;99180.41;126858;1098;23385;-78
2020/12/12 00:06:22;;;;;;;64.80;36.75;;;;;;;1.53;80.20;99178.70;126984;1099;24424;-78
2020/12/12 00:08:50;;;;;;;59.83;35.28;;;;;;;1.56;80.42;99173.86;126953;1098;28113;-79
2020/12/12 00:11:20;;;;;;;53.48;31.73;;;;;;;1.55;80.22;99182.08;126876;1098;23345;-79
2020/12/12 00:13:49;;;;;;;125.35;53.83;;;;;;;1.55;80.79;99185.60;126745;1098;23325;-80
2020/12/12 00:16:17;;;;;;;83.70;33.67;;;;;;;1.58;80.51;99179.92;126668;1099;23433;-79
2020/12/12 00:18:46;;;;;;;99.95;51.98;;;;;;;1.57;80.31;99193.52;126722;1098;23439;-80
2020/12/12 00:21:21;;;;;;;78.30;42.43;;;;;;;1.56;80.46;99186.47;126804;1098;23324;-77
2020/12/12 00:23:50;;;;;;;80.70;41.65;;;;;;;1.57;80.51;99188.13;126670;1098;27492;-81
2020/12/12 00:26:25;;;;;;;72.82;41.40;;;;;;;1.58;80.45;99184.42;126674;1098;27114;-77
2020/12/12 00:28:53;;;;;;;57.48;32.28;;;;;;;1.59;80.55;99191.50;126308;1098;23339;-78
2020/12/12 00:31:22;;;;;;;57.58;30.75;;;;;;;1.58;80.56;99184.42;126582;1098;24972;-79
2020/12/12 00:33:50;;;;;;;52.38;31.52;;;;;;;1.59;80.73;99180.75;126668;1098;23383;-79
2020/12/12 00:36:19;;;;;;;64.03;34.65;;;;;;;1.62;80.66;99183.09;126689;1098;23427;-79
2020/12/12 00:38:47;;;;;;;75.17;36.27;;;;;;;1.65;80.77;99174.73;126645;1098;24418;-79
2020/12/12 00:41:15;;;;;;;71.87;35.57;;;;;;;1.69;80.88;99175.25;126613;1099;23493;-78
2020/12/12 00:43:43;;;;;;;72.97;36.48;;;;;;;1.72;80.83;99170.37;126640;1099;23364;-78
2020/12/12 00:46:11;;;;;;;61.95;29.15;;;;;;;1.76;80.75;99187.86;126712;1098;26634;-78
2020/12/12 00:48:40;;;;;;;59.05;31.27;;;;;;;1.79;80.80;99184.00;126771;1098;23339;-78
2020/12/12 00:51:08;;;;;;;57.40;31.17;;;;;;;1.80;80.87;99185.69;126878;1098;23395;-78
2020/12/12 00:53:36;;;;;;;58.02;29.45;;;;;;;1.81;80.88;99185.54;126772;1098;23476;-77
2020/12/12 00:56:04;;;;;;;55.93;29.30;;;;;;;1.83;80.56;99188.91;126602;1098;23383;-78
2020/12/12 00:58:32;;;;;;;60.33;30.77;;;;;;;1.86;80.92;99186.87;126606;1099;27910;-78
2020/12/12 01:01:00;;;;;;;61.40;31.43;;;;;;;1.85;80.71;99188.72;126781;1099;23382;-78
2020/12/12 01:03:28;;;;;;;55.00;29.20;;;;;;;1.89;81.00;99192.77;126920;1098;23388;-78
2020/12/12 01:05:56;;;;;;;63.08;33.02;;;;;;;1.90;81.00;99189.09;126920;1098;26864;-79
2020/12/12 01:08:27;;;;;;;63.55;31.68;;;;;;;1.93;80.95;99190.60;126908;1098;23324;-77
2020/12/12 01:10:56;;;;;;;60.47;31.20;;;;;;;1.93;80.84;99183.37;126857;1098;23328;-78
2020/12/12 01:13:24;;;;;;;49.35;25.68;;;;;;;1.94;80.86;99184.20;126951;1098;23328;-78
2020/12/12 01:15:52;;;;;;;58.45;31.77;;;;;;;1.94;80.92;99185.07;126953;1099;24001;-79
2020/12/12 01:18:21;;;;;;;62.98;32.45;;;;;;;1.97;80.99;99178.51;127322;1098;23336;-79
2020/12/12 01:20:49;;;;;;;60.17;33.00;;;;;;;1.99;80.95;99176.50;127267;1098;23325;-79
2020/12/12 01:23:17;;;;;;;50.08;28.75;;;;;;;1.99;80.82;99182.71;127191;1099;23462;-79
2020/12/12 01:25:45;;;;;;;54.60;30.12;;;;;;;2.01;80.72;99185.25;127261;1098;23382;-79
2020/12/12 01:28:13;;;;;;;59.63;29.90;;;;;;;2.01;81.11;99183.39;127331;1098;23422;-80
2020/12/12 01:30:42;;;;;;;60.73;32.33;;;;;;;2.02;80.87;99182.37;127003;1099;23478;-78
2020/12/12 01:33:10;;;;;;;56.20;29.52;;;;;;;2.05;81.08;99175.84;126842;1098;23388;-78
2020/12/12 01:35:38;;;;;;;52.33;27.77;;;;;;;2.03;80.76;99177.85;126564;1098;23325;-79
2020/12/12 01:38:06;;;;;;;65.03;32.85;;;;;;;2.02;80.69;99187.75;127311;1098;23388;-82
2020/12/12 01:40:34;;;;;;;60.98;30.43;;;;;;;2.04;81.00;99179.52;127001;1099;25867;-79
2020/12/12 01:43:03;;;;;;;62.90;31.80;;;;;;;2.03;81.00;99181.38;126665;1098;23470;-78
2020/12/12 01:45:31;;;;;;;55.03;29.23;;;;;;;2.01;80.83;99182.56;126821;1098;26893;-78
2020/12/12 01:48:00;;;;;;;74.50;36.70;;;;;;;1.98;80.73;99180.18;126851;1099;23335;-78
2020/12/12 01:50:29;;;;;;;66.40;33.40;;;;;;;1.97;80.76;99178.51;126866;1098;23379;-79
2020/12/12 01:52:57;;;;;;;53.15;29.15;;;;;;;1.93;80.62;99182.53;126872;1099;23325;-78
2020/12/12 01:55:26;;;;;;;59.18;30.23;;;;;;;1.89;80.58;99186.55;126826;1098;23328;-78
2020/12/12 01:57:54;;;;;;;63.68;31.60;;;;;;;1.84;80.75;99197.81;126520;1099;25018;-78
2020/12/12 02:00:24;;;;;;;51.70;26.65;;;;;;;1.83;80.66;99199.66;126934;1098;23327;-78
2020/12/12 02:02:56;;;;;;;58.80;31.43;;;;;;;1.83;80.82;99198.80;126873;1098;26408;-78
2020/12/12 02:05:39;;;;;;;58.28;31.48;;;;;;;1.83;80.76;99188.05;126923;1098;23997;-79
2020/12/12 02:08:17;;;;;;;62.85;33.28;;;;;;;1.84;81.03;99195.95;126893;1098;23436;-78
2020/12/12 02:10:48;;;;;;;51.87;27.57;;;;;;;1.81;80.77;99193.61;127277;1099;23300;-80
2020/12/12 02:13:18;;;;;;;55.30;29.63;;;;;;;1.79;80.79;99189.38;126825;1098;23360;-79
2020/12/12 02:15:47;;;;;;;64.53;33.98;;;;;;;1.79;80.94;99187.55;126824;1098;24078;-78
2020/12/12 02:18:21;;;;;;;72.20;33.78;;;;;;;1.80;80.93;99183.84;126832;1098;23367;-78
2020/12/12 02:20:57;;;;;;;64.47;32.90;;;;;;;1.85;81.28;99188.72;126575;1099;23325;-78
2020/12/12 02:23:26;;;;;;;73.00;35.17;;;;;;;1.87;81.13;99185.87;126841;1098;23374;-78
2020/12/12 02:25:56;;;;;;;64.10;34.98;;;;;;;1.91;81.11;99184.55;126564;1099;24836;-78
2020/12/12 02:28:58;;;;;;;68.37;34.80;;;;;;;1.89;81.12;99171.25;126904;1098;23370;-78
2020/12/12 02:31:27;;;;;;;73.55;35.63;;;;;;;1.94;81.10;99178.83;126826;1099;23376;-78
2020/12/12 02:33:55;;;;;;;72.08;38.63;;;;;;;1.95;81.28;99181.36;126843;1098;23832;-80
2020/12/12 02:36:23;;;;;;;77.17;39.40;;;;;;;1.96;81.21;99184.87;126814;1098;23755;-80
2020/12/12 02:38:51;;;;;;;53.17;28.47;;;;;;;1.94;80.76;99184.20;126879;1098;23438;-80
2020/12/12 02:41:19;;;;;;;61.75;32.78;;;;;;;1.92;80.79;99180.84;126893;1099;23923;-79
2020/12/12 02:43:47;;;;;;;68.42;33.50;;;;;;;1.89;80.92;99178.48;126949;1098;28060;-80
2020/12/12 02:46:16;;;;;;;71.17;37.13;;;;;;;1.88;80.99;99166.03;126906;1099;26475;-78
2020/12/12 02:48:44;;;;;;;67.72;36.30;;;;;;;1.91;81.12;99180.00;126884;1098;23393;-78
2020/12/12 02:51:12;;;;;;;66.10;34.67;;;;;;;1.93;80.86;99169.92;126922;1099;23596;-80
2020/12/12 02:53:40;;;;;;;62.05;35.83;;;;;;;1.95;80.94;99169.77;126934;1098;26891;-78
2020/12/12 02:56:09;;;;;;;61.00;33.90;;;;;;;1.96;81.09;99166.05;126908;1098;23331;-78
2020/12/12 02:58:37;;;;;;;66.37;36.68;;;;;;;1.94;80.93;99168.06;126974;1098;23438;-78
2020/12/12 03:01:06;;;;;;;71.10;35.73;;;;;;;1.95;81.10;99165.22;126932;1098;27652;-78
2020/12/12 03:03:34;;;;;;;82.92;43.52;;;;;;;2.00;81.19;99162.86;126875;1099;23324;-78
2020/12/12 03:06:03;;;;;;;70.45;38.63;;;;;;;2.02;81.45;99163.53;126880;1098;26855;-79
2020/12/12 03:08:32;;;;;;;76.72;40.03;;;;;;;2.04;80.96;99156.15;127254;1099;25988;-78
2020/12/12 03:11:00;;;;;;;69.37;34.33;;;;;;;2.05;81.04;99157.01;126794;1099;23372;-78
2020/12/12 03:13:28;;;;;;;68.10;37.50;;;;;;;2.03;80.83;99162.55;126881;1098;23362;-78
2020/12/12 03:15:56;;;;;;;66.37;33.40;;;;;;;1.97;80.66;99154.30;126884;1098;23309;-77
2020/12/12 03:18:25;;;;;;;65.78;32.13;;;;;;;1.94;80.64;99151.93;126888;1098;23324;-79
2020/12/12 03:20:53;;;;;;;67.42;35.70;;;;;;;1.88;80.72;99147.20;126824;1098;26408;-79
2020/12/12 03:23:21;;;;;;;69.60;36.53;;;;;;;1.86;80.85;99155.46;126947;1098;23367;-79
2020/12/12 03:25:50;;;;;;;65.72;34.33;;;;;;;1.83;80.95;99148.57;126893;1098;23300;-79
2020/12/12 03:28:18;;;;;;;71.05;35.43;;;;;;;1.82;80.59;99146.04;126867;1098;23394;-79
2020/12/12 03:30:46;;;;;;;78.15;39.85;;;;;;;1.80;80.94;99156.95;126872;1098;23481;-78
2020/12/12 03:33:14;;;;;;;62.23;32.43;;;;;;;1.78;80.83;99158.12;126904;1098;26918;-80
2020/12/12 03:35:42;;;;;;;69.05;36.80;;;;;;;1.76;80.56;99154.76;126909;1099;23382;-79
2020/12/12 03:38:11;;;;;;;64.80;33.90;;;;;;;1.74;80.91;99148.70;126901;1098;26275;-79
2020/12/12 03:40:39;;;;;;;62.95;34.00;;;;;;;1.75;80.77;99153.06;126877;1099;23380;-78
2020/12/12 03:43:07;;;;;;;65.60;35.17;;;;;;;1.73;80.75;99149.69;126873;1098;23345;-79
2020/12/12 03:45:35;;;;;;;60.83;33.78;;;;;;;1.72;80.74;99148.86;126864;1098;26471;-79
2020/12/12 03:48:03;;;;;;;69.55;37.35;;;;;;;1.71;80.87;99155.26;126854;1098;23417;-78
2020/12/12 03:50:31;;;;;;;70.25;35.48;;;;;;;1.73;80.95;99147.00;126868;1099;23333;-78
2020/12/12 03:53:00;;;;;;;65.20;36.65;;;;;;;1.74;80.81;99146.85;126837;1098;23428;-78
2020/12/12 03:55:28;;;;;;;77.32;37.88;;;;;;;1.76;80.97;99160.14;126844;1098;27749;-79
2020/12/12 03:57:57;;;;;;;67.58;36.55;;;;;;;1.78;80.89;99152.75;126872;1098;28382;-77
2020/12/12 04:00:25;;;;;;;67.80;33.55;;;;;;;1.77;80.96;99143.85;126852;1098;23402;-78
2020/12/12 04:02:54;;;;;;;73.95;38.35;;;;;;;1.73;80.67;99150.56;126887;1098;23329;-78
2020/12/12 04:05:22;;;;;;;71.35;38.60;;;;;;;1.69;80.51;99142.99;126958;1098;23403;-79
2020/12/12 04:07:50;;;;;;;70.87;38.28;;;;;;;1.65;80.91;99147.84;127335;1098;23399;-80
2020/12/12 04:10:19;;;;;;;69.55;36.77;;;;;;;1.63;80.78;99150.69;126865;1099;23332;-81
2020/12/12 04:12:47;;;;;;;72.75;35.58;;;;;;;1.65;80.77;99155.91;126875;1098;26426;-81
2020/12/12 04:15:16;;;;;;;59.65;31.02;;;;;;;1.63;80.66;99160.61;126870;1098;26769;-80
2020/12/12 04:17:44;;;;;;;69.58;35.78;;;;;;;1.57;80.78;99147.81;126905;1098;23327;-78
2020/12/12 04:20:12;;;;;;;64.92;35.43;;;;;;;1.54;80.87;99157.05;126832;1098;23390;-77
2020/12/12 04:22:40;;;;;;;65.80;34.65;;;;;;;1.51;80.67;99143.92;126973;1098;28095;-77
2020/12/12 04:25:09;;;;;;;68.33;35.08;;;;;;;1.51;80.82;99140.40;126881;1098;23382;-78
2020/12/12 04:27:37;;;;;;;64.32;32.15;;;;;;;1.50;80.98;99139.56;126892;1099;23325;-78
2020/12/12 04:30:05;;;;;;;57.40;28.87;;;;;;;1.53;80.88;99149.98;126920;1098;23533;-79
2020/12/12 04:32:33;;;;;;;59.20;30.30;;;;;;;1.49;80.75;99143.24;126907;1098;23400;-79
2020/12/12 04:35:03;;;;;;;52.23;28.15;;;;;;;1.43;80.65;99144.75;126910;1098;24051;-78
2020/12/12 04:37:31;;;;;;;55.50;30.37;;;;;;;1.39;80.77;99138.02;126881;1098;23362;-78
2020/12/12 04:40:00;;;;;;;56.90;29.50;;;;;;;1.39;80.88;99143.39;126935;1098;23328;-77
2020/12/12 04:42:31;;;;;;;53.92;29.52;;;;;;;1.38;80.86;99144.38;126867;1098;23363;-77
2020/12/12 04:45:01;;;;;;;66.15;36.48;;;;;;;1.37;80.99;99139.20;126904;1098;23537;-78
2020/12/12 04:47:30;;;;;;;55.17;30.02;;;;;;;1.31;80.72;99140.67;126533;1099;23782;-77
2020/12/12 04:49:59;;;;;;;51.83;29.50;;;;;;;1.28;80.75;99148.20;126931;1098;23533;-78
2020/12/12 04:52:34;;;;;;;53.20;30.77;;;;;;;1.32;80.97;99142.34;126537;1099;23391;-78
2020/12/12 04:55:05;;;;;;;52.80;29.05;;;;;;;1.32;80.81;99142.34;126908;1098;26441;-78
2020/12/12 04:57:35;;;;;;;57.40;32.80;;;;;;;1.28;80.92;99135.63;127374;1099;23528;-78
2020/12/12 05:00:13;;;;;;;54.27;28.38;;;;;;;1.28;80.93;99146.38;127359;1099;26798;-79
2020/12/12 05:02:41;;;;;;;50.95;28.60;;;;;;;1.29;81.00;99145.36;127263;1099;23469;-77
2020/12/12 05:05:10;;;;;;;62.90;34.00;;;;;;;1.28;81.05;99149.06;126856;1099;23314;-79
2020/12/12 05:07:38;;;;;;;59.95;31.05;;;;;;;1.29;81.23;99153.42;126859;1098;26527;-79
2020/12/12 05:10:07;;;;;;;57.62;30.27;;;;;;;1.28;81.17;99151.76;126914;1098;23379;-78
2020/12/12 05:12:36;;;;;;;62.60;31.60;;;;;;;1.29;81.20;99161.48;126895;1098;23386;-80
2020/12/12 05:15:04;;;;;;;62.23;34.08;;;;;;;1.31;81.19;99162.16;126926;1098;23335;-80
2020/12/12 05:17:32;;;;;;;66.37;35.15;;;;;;;1.30;81.23;99155.13;126826;1098;26811;-79
2020/12/12 05:20:01;;;;;;;71.40;36.00;;;;;;;1.33;81.14;99145.89;126849;1098;23391;-79
2020/12/12 05:22:31;;;;;;;60.05;31.25;;;;;;;1.33;81.34;99149.41;127004;1098;25068;-79
2020/12/12 05:25:00;;;;;;;56.65;33.85;;;;;;;1.33;81.44;99148.58;127115;1098;23325;-78
2020/12/12 05:27:28;;;;;;;49.48;27.45;;;;;;;1.32;81.20;99147.71;127027;1098;23339;-78
2020/12/12 05:30:00;;;;;;;44.40;24.03;;;;;;;1.29;81.13;99139.98;127060;1098;23372;-78
2020/12/12 05:32:28;;;;;;;103.75;46.02;;;;;;;1.24;80.60;99134.27;127095;1098;23392;-78
2020/12/12 05:34:58;;;;;;;111.20;61.58;;;;;;;1.20;81.17;99138.28;126964;1098;27916;-79
2020/12/12 05:37:26;;;;;;;69.07;37.05;;;;;;;1.20;81.16;99149.03;127048;1098;23355;-78
2020/12/12 05:39:56;;;;;;;61.00;29.30;;;;;;;1.20;81.43;99147.17;127109;1098;26910;-79
2020/12/12 05:42:25;;;;;;;49.85;26.23;;;;;;;1.23;81.30;99140.63;127007;1098;23469;-80
2020/12/12 05:44:53;;;;;;;45.60;23.92;;;;;;;1.28;81.23;99148.20;127038;1098;23393;-77
2020/12/12 05:47:22;;;;;;;74.30;35.68;;;;;;;1.28;81.41;99149.06;126927;1099;23316;-78
2020/12/12 05:49:51;;;;;;;72.15;39.67;;;;;;;1.28;81.37;99146.38;127037;1098;23344;-77
2020/12/12 05:52:21;;;;;;;108.63;57.98;;;;;;;1.31;81.59;99151.42;126983;1099;23535;-77
2020/12/12 05:54:50;;;;;;;61.23;29.48;;;;;;;1.30;81.49;99154.25;126904;1099;26467;-77
2020/12/12 05:57:20;;;;;;;62.20;26.07;;;;;;;1.26;81.27;99153.77;126847;1098;23379;-77
2020/12/12 05:59:49;;;;;;;56.67;27.57;;;;;;;1.23;81.40;99151.38;126902;1098;23379;-76
2020/12/12 06:02:24;;;;;;;57.73;28.52;;;;;;;1.22;81.40;99157.77;126779;1099;27677;-75
2020/12/12 06:04:55;;;;;;;126.62;56.20;;;;;;;1.20;81.49;99152.55;126790;1098;23469;-76
2020/12/12 06:07:29;;;;;;;69.55;34.90;;;;;;;1.18;81.40;99159.09;126816;1098;23325;-76
2020/12/12 06:10:06;;;;;;;133.47;44.25;;;;;;;1.15;81.34;99154.88;126818;1098;23527;-77
2020/12/12 06:12:34;;;;;;;63.20;30.37;;;;;;;1.12;81.37;99157.88;126832;1098;26785;-78
2020/12/12 06:15:11;;;;;;;63.78;30.30;;;;;;;1.08;81.62;99161.05;126728;1098;23481;-77
2020/12/12 06:18:14;;;;;;;72.63;33.30;;;;;;;1.12;81.69;99148.98;126747;1098;23431;-77
2020/12/12 06:20:45;;;;;;;81.50;38.65;;;;;;;1.13;82.02;99148.83;126751;1098;23847;-77
2020/12/12 06:23:14;;;;;;;78.10;38.20;;;;;;;1.16;82.01;99151.19;126706;1098;23379;-77
2020/12/12 06:25:42;;;;;;;93.80;39.30;;;;;;;1.20;82.12;99165.14;126700;1098;25143;-77
2020/12/12 06:28:24;;;;;;;80.33;37.80;;;;;;;1.22;81.86;99173.89;126753;1098;23433;-76
2020/12/12 06:30:56;;;;;;;69.85;34.83;;;;;;;1.19;81.82;99168.81;126717;1098;23335;-76
2020/12/12 06:33:24;;;;;;;;;;;;;;;1.16;81.83;99169.16;126823;1098;23363;-77
2020/12/12 06:35:55;;;;;;;71.87;35.20;;;;;;;1.15;81.70;99167.45;126723;1098;21493;-76
2020/12/12 06:38:28;;;;;;;65.50;34.53;;;;;;;1.15;81.71;99172.82;126718;1098;23424;-76
2020/12/12 06:40:58;;;;;;;51.48;26.85;;;;;;;1.17;81.83;99165.45;126700;1098;24935;-75
2020/12/12 06:43:35;;;;;;;66.97;32.73;;;;;;;1.18;81.81;99180.58;126749;1099;24931;-76
2020/12/12 06:46:06;;;;;;;78.05;38.95;;;;;;;1.16;81.90;99183.41;126843;1098;23517;-76
2020/12/12 06:48:36;;;;;;;;;;;;;;;1.17;82.15;99177.06;126794;1098;26785;-77
2020/12/12 06:51:04;;;;;;;67.03;35.30;;;;;;;1.21;81.99;99177.56;126779;1098;21502;-76
2020/12/12 06:53:34;;;;;;;68.30;34.20;;;;;;;1.24;81.93;99177.25;126652;1098;23321;-75
2020/12/12 06:56:13;;;;;;;74.05;34.45;;;;;;;1.24;82.20;99182.62;126561;1098;23321;-77
2020/12/12 06:58:42;;;;;;;60.30;32.88;;;;;;;1.23;82.10;99189.82;126708;1098;26562;-76
2020/12/12 07:01:32;;;;;;;68.95;35.35;;;;;;;1.23;81.95;99178.24;126817;1098;26523;-77
2020/12/12 07:04:06;;;;;;;56.13;31.33;;;;;;;1.22;82.09;99181.95;126806;1098;23359;-76
2020/12/12 07:06:35;;;;;;;67.80;40.07;;;;;;;1.27;82.02;99184.98;126712;1098;24957;-76
2020/12/12 07:09:07;;;;;;;55.50;30.08;;;;;;;1.29;82.09;99184.83;126692;1098;27081;-76
2020/12/12 07:11:37;;;;;;;;;;;;;;;1.30;82.08;99190.05;126824;1098;23470;-77
2020/12/12 07:14:05;;;;;;;60.00;31.07;;;;;;;1.30;82.10;99176.62;126862;1098;21612;-75
2020/12/12 07:16:34;;;;;;;62.80;37.30;;;;;;;1.29;81.95;99185.66;126680;1098;23446;-76
2020/12/12 07:19:03;;;;;;;49.80;29.65;;;;;;;1.30;81.88;99189.19;126797;1099;23325;-76
2020/12/12 07:21:32;;;;;;;64.97;36.08;;;;;;;1.30;81.92;99186.50;126725;1098;23333;-77
2020/12/12 07:24:00;;;;;;;60.00;28.97;;;;;;;1.27;81.92;99187.67;126720;1098;23429;-76
2020/12/12 07:26:28;;;;;;;80.53;43.42;;;;;;;1.28;82.08;99188.50;126701;1098;23325;-77
2020/12/12 07:28:56;;;;;;;117.65;67.58;;;;;;;1.27;82.23;99187.67;126742;1098;23470;-75
2020/12/12 07:31:26;;;;;;;93.90;43.95;;;;;;;1.35;82.56;99189.56;126684;1098;23526;-78
2020/12/12 07:33:54;;;;;;;58.65;34.25;;;;;;;1.40;82.30;99182.69;126658;1098;23390;-83
2020/12/12 07:36:23;;;;;;;53.25;33.67;;;;;;;1.41;82.22;99183.55;126791;1098;23473;-75
2020/12/12 07:38:52;;;;;;;48.15;29.35;;;;;;;1.43;82.03;99189.61;126825;1098;23376;-75
2020/12/12 07:41:21;;;;;;;43.73;27.17;;;;;;;1.42;81.90;99191.42;126713;1098;26940;-74
2020/12/12 07:43:55;;;;;;;41.20;26.30;;;;;;;1.36;81.57;99178.63;126702;1098;23329;-77
2020/12/12 07:46:38;;;;;;;39.45;25.72;;;;;;;1.33;81.76;99181.66;126687;1098;23374;-75
2020/12/12 07:49:08;;;;;;;46.77;30.00;;;;;;;1.29;81.73;99185.66;126751;1098;23337;-72
2020/12/12 07:51:36;;;;;;;51.58;33.63;;;;;;;1.30;81.89;99186.50;126712;1098;23480;-72
2020/12/12 07:54:18;;;;;;;46.63;28.70;;;;;;;1.28;81.95;99189.37;126615;1098;23463;-73
2020/12/12 07:56:54;;;;;;;47.35;27.90;;;;;;;1.27;81.66;99187.67;126706;1098;26978;-72
2020/12/12 07:59:22;;;;;;;55.70;33.75;;;;;;;1.28;81.81;99189.37;126628;1098;23324;-71
2020/12/12 08:01:51;;;;;;;56.83;34.67;;;;;;;1.31;82.02;99182.83;126596;1098;27872;-73
2020/12/12 08:04:22;;;;;;;55.23;33.05;;;;;;;1.32;81.79;99196.08;126650;1098;23451;-73
2020/12/12 08:06:51;;;;;;;51.73;32.23;;;;;;;1.31;81.93;99194.41;126684;1098;25035;-71
2020/12/12 08:09:24;;;;;;;49.50;29.63;;;;;;;1.29;81.88;99203.63;126684;1098;23431;-74
2020/12/12 08:12:00;;;;;;;52.17;31.17;;;;;;;1.29;82.05;99206.33;126652;1098;26848;-73
2020/12/12 08:14:31;;;;;;;63.28;36.17;;;;;;;1.27;81.76;99197.58;126891;1098;23325;-75
2020/12/12 08:17:00;;;;;;;97.02;58.05;;;;;;;1.29;82.14;99209.01;127102;1098;23321;-76
2020/12/12 08:19:29;;;;;;;62.45;38.17;;;;;;;1.29;82.10;99198.27;126646;1098;26494;-75
2020/12/12 08:22:21;;;;;;;59.40;33.23;;;;;;;1.33;82.17;99210.38;126654;1098;23390;-79
2020/12/12 08:24:50;;;;;;;55.83;32.05;;;;;;;1.35;82.09;99214.58;126624;1099;23321;-77
2020/12/12 08:27:28;;;;;;;45.45;27.50;;;;;;;1.38;82.22;99205.35;126666;1098;26871;-77
2020/12/12 08:29:59;;;;;;;58.23;30.08;;;;;;;1.39;82.07;99207.89;126692;1098;23329;-77
2020/12/12 08:32:31;;;;;;;73.30;37.75;;;;;;;1.41;82.16;99205.05;126699;1098;26824;-77
2020/12/12 08:35:24;;;;;;;53.85;32.28;;;;;;;1.43;82.14;99208.41;126643;1098;23324;-78
2020/12/12 08:38:00;;;;;;;61.08;37.20;;;;;;;1.42;82.04;99215.61;126738;1098;23322;-77
2020/12/12 08:40:48;;;;;;;73.22;37.75;;;;;;;1.43;82.07;99213.79;126735;1098;26386;-77
2020/12/12 08:43:17;;;;;;;54.15;32.30;;;;;;;1.46;82.18;99213.45;126497;1098;23374;-80
2020/12/12 08:46:00;;;;;;;50.98;29.85;;;;;;;1.42;81.98;99212.09;126616;1098;23379;-79
2020/12/12 08:48:38;;;;;;;58.38;36.35;;;;;;;1.40;81.86;99214.09;126671;1098;23340;-79
2020/12/12 08:51:08;;;;;;;71.82;43.90;;;;;;;1.37;81.94;99211.74;126738;1098;23340;-78
2020/12/12 08:53:46;;;;;;;63.65;37.98;;;;;;;1.42;81.89;99217.47;126760;1098;23363;-78
2020/12/12 08:56:24;;;;;;;61.10;35.00;;;;;;;1.46;82.20;99217.99;126694;1098;23337;-78
2020/12/12 08:59:02;;;;;;;63.00;35.40;;;;;;;1.49;82.28;99220.34;126757;1098;26523;-77
2020/12/12 09:01:42;;;;;;;62.33;35.55;;;;;;;1.50;82.16;99214.82;126857;1098;27447;-76
2020/12/12 09:04:14;;;;;;;69.37;39.67;;;;;;;1.49;81.96;99220.34;126748;1098;23344;-77
2020/12/12 09:06:43;;;;;;;72.70;41.30;;;;;;;1.52;82.02;99222.73;126788;1098;23336;-75
2020/12/12 09:09:31;;;;;;;81.32;44.65;;;;;;;1.54;82.32;99220.73;126809;1098;23336;-76
2020/12/12 09:12:05;;;;;;;71.50;40.45;;;;;;;1.59;82.19;99221.07;126695;1098;23544;-77
2020/12/12 09:14:37;;;;;;;63.60;38.87;;;;;;;1.62;82.16;99218.91;126798;1098;23325;-77
2020/12/12 09:17:09;;;;;;;57.53;34.60;;;;;;;1.62;82.08;99215.36;126837;1098;24048;-75
2020/12/12 09:19:38;;;;;;;68.67;40.23;;;;;;;1.61;81.94;99205.63;126758;1098;23421;-76
2020/12/12 09:22:10;;;;;;;72.17;39.48;;;;;;;1.62;82.23;99221.59;126769;1098;23396;-77
2020/12/12 09:24:41;;;;;;;59.70;33.55;;;;;;;1.64;82.12;99210.66;126775;1098;23392;-75
2020/12/12 09:27:12;;;;;;;66.85;37.95;;;;;;;1.64;82.17;99221.41;126849;1098;23333;-76
2020/12/12 09:29:41;;;;;;;73.62;42.75;;;;;;;1.65;82.00;99223.11;126780;1098;23377;-77
2020/12/12 09:32:09;;;;;;;84.07;48.83;;;;;;;1.67;82.15;99223.80;126778;1098;26808;-76
2020/12/12 09:34:38;;;;;;;78.30;45.30;;;;;;;1.71;82.21;99226.98;126689;1099;23442;-76
2020/12/12 09:37:06;;;;;;;83.60;48.78;;;;;;;1.72;82.13;99225.99;126804;1098;23324;-78
2020/12/12 09:39:34;;;;;;;72.17;42.43;;;;;;;1.74;82.14;99219.45;126667;1098;23437;-76
2020/12/12 09:42:03;;;;;;;58.83;35.73;;;;;;;1.75;82.22;99226.52;126661;1098;23488;-77
2020/12/12 09:44:31;;;;;;;58.27;34.33;;;;;;;1.75;81.71;99223.83;126704;1098;23382;-77
2020/12/12 09:46:59;;;;;;;49.83;26.37;;;;;;;1.71;81.92;99222.47;126339;1099;23466;-76
2020/12/12 09:49:28;;;;;;;69.00;41.15;;;;;;;1.68;81.93;99227.32;126761;1098;23326;-81
2020/12/12 09:51:56;;;;;;;71.00;41.77;;;;;;;1.66;81.85;99230.16;126751;1098;23321;-76
2020/12/12 09:54:24;;;;;;;68.57;38.28;;;;;;;1.65;82.00;99233.88;126734;1098;23337;-76
2020/12/12 09:56:52;;;;;;;65.90;36.25;;;;;;;1.64;82.01;99229.48;126731;1098;28046;-77
2020/12/12 09:59:20;;;;;;;53.70;30.43;;;;;;;1.62;81.90;99228.80;126733;1098;23381;-76
2020/12/12 10:01:49;;;;;;;74.87;38.10;;;;;;;1.62;82.23;99226.11;126805;1098;23337;-77
2020/12/12 10:04:17;;;;;;;66.00;36.05;;;;;;;1.63;82.32;99223.27;126777;1099;23384;-77
2020/12/12 10:06:46;;;;;;;76.20;40.80;;;;;;;1.65;82.27;99227.66;126672;1098;23422;-76
2020/12/12 10:09:14;;;;;;;76.35;43.48;;;;;;;1.64;82.06;99234.86;126841;1099;23430;-78
2020/12/12 10:11:42;;;;;;;67.20;36.83;;;;;;;1.67;82.71;99231.86;126896;1099;23533;-76
2020/12/12 10:14:14;;;;;;;78.20;40.70;;;;;;;1.68;82.29;99233.53;126839;1098;23323;-77
2020/12/12 10:16:42;;;;;;;66.15;36.00;;;;;;;1.73;82.47;99224.97;126858;1098;23490;-75
2020/12/12 10:19:10;;;;;;;68.83;39.83;;;;;;;1.76;82.47;99227.36;126855;1098;23354;-76
2020/12/12 10:21:38;;;;;;;71.15;39.63;;;;;;;1.80;82.46;99226.86;126744;1099;23369;-78
2020/12/12 10:24:07;;;;;;;76.23;45.23;;;;;;;1.86;82.53;99224.52;126725;1098;26405;-77
2020/12/12 10:26:36;;;;;;;71.03;40.63;;;;;;;1.89;82.45;99225.04;126734;1099;23322;-77
2020/12/12 10:29:04;;;;;;;86.70;49.83;;;;;;;1.88;82.29;99228.75;126753;1098;23410;-76
2020/12/12 10:31:32;;;;;;;78.95;47.10;;;;;;;1.87;81.98;99223.52;126811;1098;24805;-77
2020/12/12 10:34:00;;;;;;;77.70;42.17;;;;;;;1.87;82.13;99231.59;126768;1098;28203;-76
2020/12/12 10:36:30;;;;;;;86.47;49.98;;;;;;;1.88;82.05;99230.57;126624;1098;23441;-77
2020/12/12 10:38:58;;;;;;;86.50;50.90;;;;;;;1.89;82.15;99229.59;126784;1098;23352;-76
2020/12/12 10:41:31;;;;;;;80.32;43.68;;;;;;;1.89;82.09;99225.04;126872;1098;23333;-77
2020/12/12 10:43:59;;;;;;;74.50;39.55;;;;;;;1.90;82.20;99229.43;127000;1098;23379;-76
2020/12/12 10:46:27;;;;;;;72.93;45.63;;;;;;;1.90;82.05;99236.63;126890;1098;23402;-75
2020/12/12 10:48:56;;;;;;;72.63;40.97;;;;;;;1.91;82.24;99246.40;126861;1098;23435;-76
2020/12/12 10:51:24;;;;;;;70.08;40.23;;;;;;;1.92;82.20;99240.87;126742;1098;28170;-75
2020/12/12 10:53:52;;;;;;;71.42;41.15;;;;;;;1.94;82.27;99243.38;126673;1098;26823;-76
2020/12/12 10:56:20;;;;;;;67.58;40.95;;;;;;;1.93;82.36;99244.39;126642;1098;24931;-77
2020/12/12 10:58:48;;;;;;;61.05;36.75;;;;;;;1.97;82.15;99243.89;126768;1098;23330;-76
2020/12/12 11:01:17;;;;;;;77.55;44.08;;;;;;;1.97;82.15;99248.44;126868;1098;25186;-78
2020/12/12 11:03:45;;;;;;;92.80;53.97;;;;;;;1.99;82.13;99246.43;126838;1098;26399;-76
2020/12/12 11:06:13;;;;;;;87.87;50.20;;;;;;;2.00;82.19;99248.10;126862;1098;23379;-75
2020/12/12 11:08:41;;;;;;;83.50;45.67;;;;;;;2.02;82.16;99244.23;126973;1093;23342;-76
2020/12/12 11:11:10;;;;;;;80.35;48.02;;;;;;;2.04;82.28;99244.91;126953;1098;27460;-76
2020/12/12 11:13:53;;;;;;;86.67;51.58;;;;;;;2.08;82.22;99250.81;126764;1098;23333;-75
2020/12/12 11:16:24;;;;;;;92.50;54.45;;;;;;;2.15;82.55;99249.14;126960;1098;24800;-76
2020/12/12 11:18:53;;;;;;;78.75;44.55;;;;;;;2.22;82.50;99242.12;127140;1098;23357;-75
2020/12/12 11:21:29;;;;;;;76.77;43.20;;;;;;;2.26;82.26;99237.22;126900;1098;26545;-76
2020/12/12 11:23:57;;;;;;;76.07;43.98;;;;;;;2.28;82.32;99240.59;126806;1098;26785;-76
2020/12/12 11:26:26;;;;;;;87.72;48.87;;;;;;;2.29;82.23;99228.84;126690;1098;23330;-77
2020/12/12 11:28:54;;;;;;;78.02;43.73;;;;;;;2.34;82.17;99239.94;126682;1099;23333;-77
2020/12/12 11:31:23;;;;;;;76.15;42.50;;;;;;;2.37;82.22;99234.23;126697;1098;23589;-76